Hurlburt Field
KHRT : now visible

Airfield :











YOU CAN JOIN US ON...

 
LOGIN :

Register | Disclaimer

   EN    FR    IT 

 









Legend :    VFR   Marginal VFR   IFR   Intensive IFR   Very Intensive IFR
Visi :
Ceiling :
>= 8 km
>= 3000ft
5 to 8 km
1000 to 3000 ft
1500m to 5 km
500 to 1000 ft
800 to 1500m
200 to 500 ft
< 800m
< 200 ft
Symbols :   Thunderstorms  Fog  Heavy snow  Heavy precipitations  Wind > 20 kt






- Airport Elevation : 38 ft


KHRT - Hurlburt Field

CURRENT METAR :
  • 250511Z AUTO 00000KT 10SM SCT015 BKN024 OVC075 21/19 A2989 RMK AO2 CIG 014V024 SLP123 $

EXPIRED METARs :
  • 250501Z AUTO 00000KT 10SM BKN014 OVC021 21/19 A2989 RMK AO2 SLP123 $
  • 250456Z AUTO 00000KT 10SM BKN015 OVC021 21/19 A2989 RMK AO2 SLP123 T02090186 $
  • 250401Z AUTO 35005KT 10SM BKN019 BKN070 22/20 A2991 RMK AO2 CIG 019V070 CIG 017 RWY18 SLP130 $
  • 250356Z AUTO 35003KT 10SM SCT020 BKN070 23/21 A2991 RMK AO2 SLP130 T02260205 $
  • 250256Z 00000KT 10SM SCT015 BKN022 OVC075 21/19 A2990 RMK AO2A CIG 022V075 SLP127 60000 T02100187 52012 $

TAF TAF KHRT
Valid from the 24 at 04:00 until the 25 at 08:00 UTC


240400Z 2404/2508 06006KT 9999 SCT030 QNH2998INS
BECMG 2409/2410 09008KT 8000 -SHRA BKN020 QNH3000INS
BECMG 2412/2413 09008KT 9999 NSW SCT020 SCT100 QNH2999INS
BECMG 2417/2418 09012KT 9000 -SHRA BKN030 QNH2997INS
BECMG 2501/2502 09009KT 9999 NSW SCT030 QNH2995INS LAST NO AMDS AFT 2404 NEXT 2511 TX29/2420Z TN22/2411Z
KZJX FIR / North America



MET'MAP, your aeronautical weather chart ! - Copyright ORBIFLY December 2007 - Disclaimer

ORBIFLY MET'MAP TEAM :

Programming & Development : Alexandra Zaïnal
Concept & original design : Baudouin d'Aumeries
Assistance for programming : Marc-Olivier Méhu
Technical & hardware support : Manuel Goepfert

Contact : metmap@orbifly.com




SOURCES & CREDITS :

   NOAA       Earth
Advisory